Chaco Canyon National Monume, New Mexico
Current Conditions -  °F | °C
As of 5:53 PM on Sunday 23 Nov 2014 (Local Time) from KDRO Reporting Station
Clear Clear  
Wind Chill: 16°   Ceiling: Unl
Heat Index: 28°   Visibility: 10mi
Dew Point: 17°   Wind: 16mph
Humidity: 63%   Direction: 330°NNW
Pressure: 30"   Gusts: NA
Location:  36.8347°N, 107.829°W
Report Text: KDRO 240053Z AUTO 33014KT 10SM CLR M02/M08 A3000 RMK AO2 PK WND 33031/0019 SLP184 T10221083
Loading
Personal Weather Stations






























Interactive Weather Map New forecast layout! Learn more

10-Day Weather Forecast

Advertisements
Track Severe Weather on mobile